createdAt,value
2017-07-22T00:00:32.120Z,20.81
2017-07-22T00:03:01.415Z,20.75
2017-07-22T00:05:30.848Z,20.68
2017-07-22T00:08:00.301Z,20.60
2017-07-22T00:10:29.747Z,20.52
2017-07-22T00:12:59.181Z,20.44
2017-07-22T00:15:28.623Z,20.35
2017-07-22T00:17:58.065Z,20.27
2017-07-22T00:20:27.520Z,20.19
2017-07-22T00:22:57.014Z,20.12
2017-07-22T00:25:26.493Z,20.06
2017-07-22T00:27:55.926Z,20.00
2017-07-22T00:30:25.385Z,19.94
2017-07-22T00:32:54.840Z,19.88
2017-07-22T00:35:24.313Z,19.82
2017-07-22T00:37:53.760Z,19.77
2017-07-22T00:40:23.229Z,19.74
2017-07-22T00:42:52.505Z,19.66
2017-07-22T00:45:22.000Z,19.60
2017-07-22T00:47:51.441Z,19.57
2017-07-22T00:50:20.956Z,19.51
2017-07-22T00:52:50.516Z,19.45
2017-07-22T00:55:20.038Z,19.40
2017-07-22T00:57:49.539Z,19.34
2017-07-22T01:00:18.993Z,19.26
2017-07-22T01:02:48.257Z,19.20
2017-07-22T01:05:17.741Z,19.17
2017-07-22T01:07:47.171Z,19.14
2017-07-22T01:10:16.669Z,19.10
2017-07-22T01:12:46.098Z,19.05
2017-07-22T01:15:15.584Z,19.01
2017-07-22T01:17:44.973Z,18.96
2017-07-22T01:20:14.455Z,18.91
2017-07-22T01:22:43.715Z,18.90
2017-07-22T01:25:13.210Z,18.84
2017-07-22T01:27:42.640Z,18.81
2017-07-22T01:30:12.121Z,18.79
2017-07-22T01:32:41.568Z,18.80
2017-07-22T01:35:11.075Z,18.81
2017-07-22T01:37:40.515Z,18.86
2017-07-22T01:40:09.984Z,18.86
2017-07-22T01:42:39.446Z,18.85
2017-07-22T01:45:08.931Z,18.87
2017-07-22T01:47:38.381Z,18.93
2017-07-22T01:50:07.864Z,19.05
2017-07-22T01:52:37.296Z,19.11
2017-07-22T01:55:06.798Z,19.11
2017-07-22T01:57:36.416Z,19.05
2017-07-22T02:00:05.883Z,19.03
2017-07-22T02:02:35.143Z,18.97
2017-07-22T02:05:04.620Z,18.92
2017-07-22T02:07:34.069Z,18.84
2017-07-22T02:10:03.599Z,18.78
2017-07-22T02:12:33.072Z,18.71
2017-07-22T02:15:02.538Z,18.66
2017-07-22T02:17:31.976Z,18.60
2017-07-22T02:20:01.438Z,18.56
2017-07-22T02:22:30.704Z,18.54
2017-07-22T02:25:00.162Z,18.50
2017-07-22T02:27:29.612Z,18.46
2017-07-22T02:29:59.055Z,18.41
2017-07-22T02:32:28.496Z,18.37
2017-07-22T02:34:57.937Z,18.30
2017-07-22T02:37:27.392Z,18.25
2017-07-22T02:39:56.836Z,18.19
2017-07-22T02:42:26.291Z,18.14
2017-07-22T02:44:55.745Z,18.15
2017-07-22T02:47:25.168Z,18.11
2017-07-22T02:49:54.635Z,18.00
2017-07-22T02:52:24.061Z,18.15
2017-07-22T02:54:53.516Z,18.61
2017-07-22T02:57:22.965Z,18.68
2017-07-22T02:59:52.409Z,18.85
2017-07-22T03:02:21.861Z,18.83
2017-07-22T03:04:51.332Z,18.84
2017-07-22T03:07:20.764Z,18.82
2017-07-22T03:09:50.200Z,18.85
2017-07-22T03:12:19.663Z,18.79
2017-07-22T03:14:49.167Z,18.78
2017-07-22T03:17:18.616Z,18.72
2017-07-22T03:19:48.054Z,18.66
2017-07-22T03:22:17.554Z,18.64
2017-07-22T03:24:47.014Z,18.60
2017-07-22T03:27:16.454Z,18.56
2017-07-22T03:29:45.892Z,18.54
2017-07-22T03:32:15.353Z,18.52
2017-07-22T03:34:44.805Z,18.50
2017-07-22T03:37:14.255Z,18.48
2017-07-22T03:39:43.774Z,18.48
2017-07-22T03:42:13.224Z,18.48
2017-07-22T03:44:42.685Z,18.47
2017-07-22T03:47:12.136Z,18.48
2017-07-22T03:49:41.607Z,18.47
2017-07-22T03:52:11.050Z,18.46
2017-07-22T03:54:40.525Z,18.46
2017-07-22T03:57:09.969Z,18.46
2017-07-22T03:59:39.409Z,18.47
2017-07-22T04:02:08.696Z,18.49
2017-07-22T04:04:38.184Z,18.50
2017-07-22T04:07:07.624Z,18.54
2017-07-22T04:09:37.070Z,18.60
2017-07-22T04:12:06.511Z,18.64
2017-07-22T04:14:35.868Z,18.68
2017-07-22T04:17:05.299Z,18.72
2017-07-22T04:19:34.584Z,18.78
2017-07-22T04:22:04.022Z,18.82
2017-07-22T04:24:33.487Z,18.87
2017-07-22T04:27:02.920Z,18.95
2017-07-22T04:29:32.390Z,19.06
2017-07-22T04:32:01.854Z,19.15
2017-07-22T04:34:31.300Z,19.20
2017-07-22T04:37:00.601Z,19.27
2017-07-22T04:39:30.068Z,19.36
2017-07-22T04:41:59.524Z,19.42
2017-07-22T04:44:29.123Z,19.51
2017-07-22T04:46:58.569Z,19.61
2017-07-22T04:49:28.029Z,19.71
2017-07-22T04:51:57.474Z,19.76
2017-07-22T04:54:27.078Z,19.83
2017-07-22T04:56:56.527Z,19.86
2017-07-22T04:59:26.679Z,19.91
2017-07-22T05:01:56.128Z,19.92
2017-07-22T05:04:25.654Z,19.92
2017-07-22T05:06:55.082Z,20.07
2017-07-22T05:09:24.541Z,19.99
2017-07-22T05:11:53.990Z,20.09
2017-07-22T05:14:23.440Z,20.17
2017-07-22T05:16:52.900Z,20.22
2017-07-22T05:19:22.344Z,20.28
2017-07-22T05:21:51.804Z,20.33
2017-07-22T05:24:21.248Z,20.26
2017-07-22T05:26:50.708Z,20.37
2017-07-22T05:29:20.137Z,20.37
2017-07-22T05:31:49.577Z,20.43
2017-07-22T05:34:19.028Z,20.51
2017-07-22T05:36:48.472Z,20.60
2017-07-22T05:39:17.937Z,20.65
2017-07-22T05:41:47.373Z,20.74
2017-07-22T05:44:16.804Z,20.79
2017-07-22T05:46:47.149Z,20.93
2017-07-22T05:49:16.585Z,20.98
2017-07-22T05:51:46.023Z,20.86
2017-07-22T05:54:15.647Z,20.81
2017-07-22T05:56:45.097Z,20.83
2017-07-22T05:59:14.540Z,20.85
2017-07-22T06:01:44.009Z,20.88
2017-07-22T06:04:13.466Z,20.89
2017-07-22T06:06:43.673Z,21.02
2017-07-22T06:09:13.118Z,21.08
2017-07-22T06:11:42.557Z,21.14
2017-07-22T06:14:11.996Z,21.33
2017-07-22T06:16:41.432Z,21.50
2017-07-22T06:19:11.012Z,21.67
2017-07-22T06:21:40.453Z,21.73
2017-07-22T06:24:09.909Z,21.83
2017-07-22T06:26:39.351Z,21.98
2017-07-22T06:29:08.798Z,21.83
2017-07-22T06:31:38.241Z,22.14
2017-07-22T06:34:07.675Z,22.21
2017-07-22T06:36:37.156Z,22.23
2017-07-22T06:39:06.606Z,22.41
2017-07-22T06:41:36.032Z,22.71
2017-07-22T06:44:05.481Z,22.72
2017-07-22T06:46:36.605Z,22.70
2017-07-22T06:49:06.052Z,22.81
2017-07-22T06:51:35.486Z,22.73
2017-07-22T06:54:04.930Z,22.60
2017-07-22T06:56:34.382Z,22.68
2017-07-22T06:59:03.824Z,22.64
2017-07-22T07:01:33.263Z,22.52
2017-07-22T07:04:02.736Z,22.49
2017-07-22T07:06:32.180Z,22.59
2017-07-22T07:09:01.625Z,22.75
2017-07-22T07:11:30.900Z,22.58
2017-07-22T07:14:00.340Z,22.72
2017-07-22T07:16:29.804Z,22.86
2017-07-22T07:18:59.245Z,22.94
2017-07-22T07:21:28.697Z,23.02
2017-07-22T07:23:58.145Z,22.69
2017-07-22T07:26:27.586Z,22.83
2017-07-22T07:28:57.025Z,22.88
2017-07-22T07:31:26.492Z,22.94
2017-07-22T07:33:55.957Z,23.00
2017-07-22T07:36:25.408Z,22.92
2017-07-22T07:38:54.992Z,23.10
2017-07-22T07:41:24.440Z,23.28
2017-07-22T07:43:53.902Z,23.36
2017-07-22T07:46:23.349Z,23.66
2017-07-22T07:48:52.805Z,23.73
2017-07-22T07:51:22.237Z,23.59
2017-07-22T07:53:51.699Z,23.80
2017-07-22T07:56:21.169Z,24.13
2017-07-22T07:58:50.630Z,24.32
2017-07-22T08:01:20.076Z,24.28
2017-07-22T08:03:49.537Z,24.27
2017-07-22T08:06:18.986Z,24.18
2017-07-22T08:08:48.437Z,24.29
2017-07-22T08:11:17.883Z,24.37
2017-07-22T08:13:47.328Z,24.45
2017-07-22T08:16:16.795Z,24.73
2017-07-22T08:18:46.220Z,24.74
2017-07-22T08:21:15.670Z,24.72
2017-07-22T08:23:45.116Z,25.06
2017-07-22T08:26:14.567Z,24.86
2017-07-22T08:28:44.012Z,24.66
2017-07-22T08:31:13.460Z,24.59
2017-07-22T08:33:42.931Z,24.65
2017-07-22T08:36:12.373Z,24.95
2017-07-22T08:38:41.821Z,24.99
2017-07-22T08:41:11.300Z,24.86
2017-07-22T08:43:40.757Z,24.89
2017-07-22T08:46:10.209Z,25.12
2017-07-22T08:48:39.636Z,25.26
2017-07-22T08:51:09.093Z,25.44
2017-07-22T08:53:38.545Z,25.56
2017-07-22T08:56:07.978Z,25.60
2017-07-22T08:58:37.468Z,25.92
2017-07-22T09:01:06.924Z,26.14
2017-07-22T09:03:36.380Z,26.29
2017-07-22T09:06:05.840Z,26.17
2017-07-22T09:08:35.280Z,26.02
2017-07-22T09:11:04.732Z,26.09
2017-07-22T09:13:34.174Z,26.03
2017-07-22T09:16:03.601Z,26.32
2017-07-22T09:18:33.063Z,26.64
2017-07-22T09:21:02.488Z,26.52
2017-07-22T09:23:31.971Z,26.53
2017-07-22T09:26:01.427Z,26.77
2017-07-22T09:28:30.863Z,27.19
2017-07-22T09:31:00.316Z,27.16
2017-07-22T09:33:29.830Z,26.84
2017-07-22T09:35:59.269Z,26.55
2017-07-22T09:38:28.788Z,26.56
2017-07-22T09:40:58.236Z,26.70
2017-07-22T09:43:27.697Z,26.81
2017-07-22T09:45:57.150Z,26.52
2017-07-22T09:48:26.648Z,27.00
2017-07-22T09:50:56.097Z,27.16
2017-07-22T09:53:25.569Z,27.35
2017-07-22T09:55:55.001Z,27.35
2017-07-22T09:58:24.457Z,27.06
2017-07-22T10:00:53.893Z,27.10
2017-07-22T10:03:23.342Z,26.31
2017-07-22T10:05:52.773Z,26.24
2017-07-22T10:08:22.274Z,26.23
2017-07-22T10:10:51.738Z,25.98
2017-07-22T10:13:21.153Z,25.98
2017-07-22T10:15:50.600Z,25.94
2017-07-22T10:18:20.043Z,25.92
2017-07-22T10:20:49.492Z,25.75
2017-07-22T10:23:18.954Z,25.56
2017-07-22T10:25:48.390Z,25.24
2017-07-22T10:28:17.828Z,25.36
2017-07-22T10:30:47.275Z,25.23
2017-07-22T10:33:16.752Z,25.45
2017-07-22T10:35:46.183Z,25.53
2017-07-22T10:38:15.636Z,25.63
2017-07-22T10:40:45.082Z,25.51
2017-07-22T10:43:14.529Z,25.45
2017-07-22T10:45:43.800Z,25.45
2017-07-22T10:48:13.250Z,25.50
2017-07-22T10:50:42.677Z,25.59
2017-07-22T10:53:12.124Z,25.57
2017-07-22T10:55:41.580Z,25.62
2017-07-22T10:58:11.050Z,25.25
2017-07-22T11:00:40.480Z,25.52
2017-07-22T11:03:09.960Z,25.11
2017-07-22T11:05:39.419Z,25.41
2017-07-22T11:08:08.883Z,25.48
2017-07-22T11:10:38.322Z,25.63
2017-07-22T11:13:07.758Z,25.21
2017-07-22T11:15:37.214Z,25.71
2017-07-22T11:18:06.657Z,25.84
2017-07-22T11:20:36.099Z,25.70
2017-07-22T11:23:05.548Z,25.94
2017-07-22T11:25:34.980Z,25.87
2017-07-22T11:28:04.433Z,25.90
2017-07-22T11:30:34.002Z,26.08
2017-07-22T11:33:03.440Z,26.33
2017-07-22T11:35:32.911Z,26.47
2017-07-22T11:38:02.371Z,26.96
2017-07-22T11:40:31.807Z,26.65
2017-07-22T11:43:01.264Z,26.90
2017-07-22T11:45:30.697Z,27.17
2017-07-22T11:48:00.149Z,26.84
2017-07-22T11:50:29.644Z,27.84
2017-07-22T11:52:59.302Z,28.30
2017-07-22T11:55:28.740Z,28.39
2017-07-22T11:57:58.268Z,28.00
2017-07-22T12:00:27.726Z,28.32
2017-07-22T12:02:57.198Z,28.14
2017-07-22T12:05:26.683Z,28.25
2017-07-22T12:07:56.111Z,28.37
2017-07-22T12:10:25.554Z,28.57
2017-07-22T12:12:55.006Z,28.60
2017-07-22T12:15:24.444Z,28.84
2017-07-22T12:17:53.879Z,28.76
2017-07-22T12:20:23.368Z,29.40
2017-07-22T12:22:52.816Z,29.96
2017-07-22T12:25:22.324Z,29.86
2017-07-22T12:27:51.746Z,30.17
2017-07-22T12:30:21.247Z,30.91
2017-07-22T12:32:50.680Z,31.92
2017-07-22T12:35:20.250Z,31.68
2017-07-22T12:37:49.701Z,32.38
2017-07-22T12:40:19.224Z,32.47
2017-07-22T12:42:48.669Z,32.37
2017-07-22T12:45:18.147Z,32.31
2017-07-22T12:47:47.581Z,33.20
2017-07-22T12:50:17.068Z,33.54
2017-07-22T12:52:46.505Z,34.58
2017-07-22T12:55:15.978Z,35.45
2017-07-22T12:57:45.420Z,36.92
2017-07-22T13:00:14.906Z,35.08
2017-07-22T13:02:44.337Z,36.98
2017-07-22T13:05:13.818Z,36.33
2017-07-22T13:07:43.259Z,36.90
2017-07-22T13:10:12.803Z,36.08
2017-07-22T13:12:42.262Z,36.29
2017-07-22T13:15:11.846Z,38.11
2017-07-22T13:17:41.328Z,38.21
2017-07-22T13:20:10.840Z,38.55
2017-07-22T13:22:40.317Z,38.52
2017-07-22T13:25:09.772Z,37.74
2017-07-22T13:27:39.230Z,38.73
2017-07-22T13:30:09.324Z,37.42
2017-07-22T13:32:38.770Z,38.60
2017-07-22T13:35:08.269Z,37.40
2017-07-22T13:37:37.721Z,38.52
2017-07-22T13:40:07.330Z,38.05
2017-07-22T13:42:36.800Z,37.96
2017-07-22T13:45:06.285Z,37.33
2017-07-22T13:47:36.202Z,37.90
2017-07-22T13:50:05.716Z,39.12
2017-07-22T13:52:35.157Z,38.39
2017-07-22T13:55:04.642Z,38.51
2017-07-22T13:57:34.083Z,38.32
2017-07-22T14:00:03.605Z,38.56
2017-07-22T14:02:33.059Z,38.21
2017-07-22T14:05:02.549Z,37.51
2017-07-22T14:07:31.982Z,37.70
2017-07-22T14:10:01.453Z,37.18
2017-07-22T14:12:30.884Z,37.99
2017-07-22T14:15:00.333Z,38.28
2017-07-22T14:17:29.788Z,38.51
2017-07-22T14:19:59.219Z,38.89
2017-07-22T14:22:28.660Z,38.32
2017-07-22T14:24:58.165Z,39.09
2017-07-22T14:27:27.608Z,38.95
2017-07-22T14:29:57.111Z,39.78
2017-07-22T14:32:26.579Z,39.20
2017-07-22T14:34:56.061Z,39.51
2017-07-22T14:37:25.549Z,39.81
2017-07-22T14:39:54.987Z,39.64
2017-07-22T14:42:24.422Z,38.79
2017-07-22T14:44:53.914Z,36.74
2017-07-22T14:47:24.053Z,36.89
2017-07-22T14:49:53.569Z,37.01
2017-07-22T14:52:23.008Z,36.45
2017-07-22T14:54:52.460Z,37.43
2017-07-22T14:57:21.907Z,37.53
2017-07-22T14:59:51.381Z,37.64
2017-07-22T15:02:20.864Z,38.50
2017-07-22T15:04:50.320Z,38.81
2017-07-22T15:07:19.860Z,38.69
2017-07-22T15:09:49.517Z,39.34
2017-07-22T15:12:18.957Z,39.69
2017-07-22T15:14:48.396Z,39.25
2017-07-22T15:17:17.882Z,39.18
2017-07-22T15:19:47.329Z,39.75
2017-07-22T15:22:16.769Z,39.59
2017-07-22T15:24:46.205Z,40.50
2017-07-22T15:27:15.644Z,40.62
2017-07-22T15:29:45.110Z,40.81
2017-07-22T15:32:14.553Z,40.86
2017-07-22T15:34:43.984Z,40.81
2017-07-22T15:37:13.445Z,40.12
2017-07-22T15:39:42.895Z,38.89
2017-07-22T15:42:12.331Z,39.61
2017-07-22T15:44:41.822Z,39.60
2017-07-22T15:47:11.207Z,39.24
2017-07-22T15:49:40.469Z,39.61
2017-07-22T15:52:09.908Z,38.57
2017-07-22T15:54:39.367Z,39.81
2017-07-22T15:57:08.820Z,39.38
2017-07-22T15:59:38.262Z,38.64
2017-07-22T16:02:07.705Z,38.52
2017-07-22T16:04:37.160Z,38.57
2017-07-22T16:07:06.605Z,38.09
2017-07-22T16:09:36.073Z,37.77
2017-07-22T16:12:05.526Z,38.10
2017-07-22T16:14:34.966Z,38.31
2017-07-22T16:17:04.424Z,38.59
2017-07-22T16:19:33.853Z,37.11
2017-07-22T16:22:03.390Z,37.40
2017-07-22T16:24:32.922Z,37.65
2017-07-22T16:27:02.426Z,37.02
2017-07-22T16:29:31.881Z,37.36
2017-07-22T16:32:01.319Z,37.07
2017-07-22T16:34:30.768Z,37.55
2017-07-22T16:37:00.226Z,37.55
2017-07-22T16:39:29.677Z,38.22
2017-07-22T16:41:59.132Z,38.08
2017-07-22T16:44:28.564Z,36.05
2017-07-22T16:46:58.033Z,37.29
2017-07-22T16:49:27.464Z,37.87
2017-07-22T16:51:56.911Z,37.70
2017-07-22T16:54:26.353Z,37.58
2017-07-22T16:56:55.809Z,37.33
2017-07-22T16:59:26.083Z,37.65
2017-07-22T17:01:55.541Z,37.88
2017-07-22T17:04:24.992Z,37.47
2017-07-22T17:06:54.456Z,36.99
2017-07-22T17:09:23.888Z,37.59
2017-07-22T17:11:53.348Z,36.29
2017-07-22T17:14:22.804Z,37.31
2017-07-22T17:16:52.269Z,36.28
2017-07-22T17:19:21.702Z,36.32
2017-07-22T17:21:51.158Z,36.73
2017-07-22T17:24:20.594Z,35.86
2017-07-22T17:26:50.027Z,36.72
2017-07-22T17:29:19.484Z,36.50
2017-07-22T17:31:48.947Z,36.73
2017-07-22T17:34:18.380Z,36.64
2017-07-22T17:36:47.866Z,36.11
2017-07-22T17:39:17.312Z,36.28
2017-07-22T17:41:46.761Z,36.27
2017-07-22T17:44:16.205Z,36.34
2017-07-22T17:46:45.665Z,35.67
2017-07-22T17:49:15.091Z,35.94
2017-07-22T17:51:44.546Z,35.77
2017-07-22T17:54:13.999Z,35.19
2017-07-22T17:56:43.454Z,35.38
2017-07-22T17:59:12.912Z,34.86
2017-07-22T18:01:42.490Z,34.64
2017-07-22T18:04:11.957Z,33.85
2017-07-22T18:06:41.398Z,33.76
2017-07-22T18:09:10.838Z,33.35
2017-07-22T18:11:40.379Z,32.86
2017-07-22T18:14:09.815Z,32.99
2017-07-22T18:16:39.263Z,32.92
2017-07-22T18:19:08.730Z,32.41
2017-07-22T18:21:38.292Z,31.89
2017-07-22T18:24:07.728Z,31.23
2017-07-22T18:26:37.910Z,30.69
2017-07-22T18:29:08.268Z,30.12
2017-07-22T18:31:37.996Z,29.68
2017-07-22T18:34:09.057Z,29.27
2017-07-22T18:36:39.160Z,28.85
2017-07-22T18:39:09.284Z,28.32
2017-07-22T18:41:39.425Z,27.96
2017-07-22T18:44:09.655Z,27.64
2017-07-22T18:46:39.967Z,27.28
2017-07-22T18:49:10.147Z,26.84
2017-07-22T18:51:40.120Z,26.55
2017-07-22T18:54:08.981Z,26.25
2017-07-22T18:56:38.667Z,26.07
2017-07-22T18:59:12.865Z,25.86
2017-07-22T19:01:43.429Z,25.63
2017-07-22T19:04:12.877Z,25.42
2017-07-22T19:06:42.352Z,25.22
2017-07-22T19:09:12.232Z,25.00
2017-07-22T19:11:41.678Z,24.77
2017-07-22T19:14:11.470Z,24.59
2017-07-22T19:16:41.980Z,24.32
2017-07-22T19:19:11.401Z,24.18
2017-07-22T19:21:41.544Z,24.03
2017-07-22T19:24:11.106Z,23.88
2017-07-22T19:26:40.782Z,23.73
2017-07-22T19:29:10.438Z,23.59
2017-07-22T19:31:40.043Z,23.45
2017-07-22T19:34:09.708Z,23.35
2017-07-22T19:36:39.543Z,23.18
2017-07-22T19:39:09.355Z,23.04
2017-07-22T19:41:38.914Z,22.90
2017-07-22T19:44:08.880Z,22.82
2017-07-22T19:46:38.929Z,22.72
2017-07-22T19:49:09.450Z,22.64
2017-07-22T19:51:39.575Z,22.54
2017-07-22T19:54:09.072Z,22.48
2017-07-22T19:56:39.086Z,22.36
2017-07-22T19:59:08.696Z,22.27
2017-07-22T20:01:39.119Z,22.16
2017-07-22T20:04:08.563Z,22.10
2017-07-22T20:06:39.125Z,22.07
2017-07-22T20:09:08.845Z,22.02
2017-07-22T20:11:39.063Z,21.92
2017-07-22T20:14:08.803Z,21.80
2017-07-22T20:16:39.002Z,21.69
2017-07-22T20:19:08.699Z,21.58
2017-07-22T20:21:38.412Z,21.47
2017-07-22T20:24:08.182Z,21.40
2017-07-22T20:26:39.404Z,21.33
2017-07-22T20:29:09.427Z,21.27
2017-07-22T20:31:39.411Z,21.21
2017-07-22T20:34:09.069Z,21.14
2017-07-22T20:36:39.547Z,21.08
2017-07-22T20:39:09.279Z,21.01
2017-07-22T20:41:38.742Z,20.96
2017-07-22T20:44:08.595Z,20.89
2017-07-22T20:46:38.615Z,20.82
2017-07-22T20:49:08.045Z,20.75
2017-07-22T20:51:38.306Z,20.68
2017-07-22T20:54:08.358Z,20.57
2017-07-22T20:56:38.307Z,20.49
2017-07-22T20:59:08.005Z,20.43
2017-07-22T21:01:38.091Z,20.39
2017-07-22T21:04:08.021Z,20.35
2017-07-22T21:06:38.450Z,20.32
2017-07-22T21:09:08.711Z,20.27
2017-07-22T21:11:38.336Z,20.23
2017-07-22T21:14:08.074Z,20.17
2017-07-22T21:16:37.546Z,20.12
2017-07-22T21:19:09.254Z,20.08
2017-07-22T21:21:39.412Z,20.03
2017-07-22T21:24:09.661Z,19.98
2017-07-22T21:26:39.529Z,19.93
2017-07-22T21:29:09.607Z,19.87
2017-07-22T21:31:39.435Z,19.81
2017-07-22T21:34:09.619Z,19.75
2017-07-22T21:36:40.090Z,19.69
2017-07-22T21:39:10.312Z,19.64
2017-07-22T21:41:40.129Z,19.65
2017-07-22T21:44:09.811Z,19.62
2017-07-22T21:46:39.958Z,19.59
2017-07-22T21:49:09.961Z,19.58
2017-07-22T21:51:39.887Z,19.55
2017-07-22T21:54:09.534Z,19.51
2017-07-22T21:56:40.146Z,19.48
2017-07-22T21:59:09.889Z,19.43
2017-07-22T22:01:39.626Z,19.37
2017-07-22T22:04:09.217Z,19.31
2017-07-22T22:06:38.811Z,19.26
2017-07-22T22:09:08.688Z,19.23
2017-07-22T22:11:38.253Z,19.23
2017-07-22T22:14:07.695Z,19.21
2017-07-22T22:16:37.199Z,19.19
2017-07-22T22:19:06.728Z,19.15
2017-07-22T22:21:36.183Z,19.09
2017-07-22T22:24:05.636Z,19.02
2017-07-22T22:26:35.093Z,18.98
2017-07-22T22:29:04.557Z,18.94
2017-07-22T22:31:34.025Z,18.89
2017-07-22T22:34:03.456Z,18.88
2017-07-22T22:36:32.831Z,18.88
2017-07-22T22:39:02.261Z,18.87
2017-07-22T22:41:32.189Z,18.85
2017-07-22T22:44:01.633Z,18.82
2017-07-22T22:46:31.071Z,18.79
2017-07-22T22:49:00.589Z,18.77
2017-07-22T22:51:30.735Z,18.72
2017-07-22T22:54:00.158Z,18.70
2017-07-22T22:56:29.601Z,18.66
2017-07-22T22:58:59.048Z,18.66
2017-07-22T23:01:28.506Z,18.64
2017-07-22T23:03:57.937Z,18.64
2017-07-22T23:06:28.229Z,18.63
2017-07-22T23:08:57.669Z,18.62
2017-07-22T23:11:27.113Z,18.61
2017-07-22T23:13:56.389Z,18.59
2017-07-22T23:16:25.839Z,18.56
2017-07-22T23:18:55.347Z,18.54
2017-07-22T23:21:24.785Z,18.49
2017-07-22T23:23:54.230Z,18.49
2017-07-22T23:26:23.697Z,18.45
2017-07-22T23:28:53.142Z,18.42
2017-07-22T23:31:22.716Z,18.38
2017-07-22T23:33:52.151Z,18.33
2017-07-22T23:36:21.606Z,18.40
2017-07-22T23:38:51.056Z,18.39
2017-07-22T23:41:20.519Z,18.40
2017-07-22T23:43:49.957Z,18.38
2017-07-22T23:46:19.413Z,18.39
2017-07-22T23:48:48.841Z,18.35
2017-07-22T23:51:18.328Z,18.30
2017-07-22T23:53:47.773Z,18.29
2017-07-22T23:56:17.302Z,18.29
2017-07-22T23:58:46.740Z,18.36
